Time;durP1;ratioP1;P1;durP2;ratioP2;P2;SDS_P1;SDS_P2;PMS_P1;PMS_P2;Temp;Humidity;BMP_temperature;BMP_pressure;BME280_temperature;BME280_humidity;BME280_pressure;Samples;Min_cycle;Max_cycle;Signal;HPM_P1;HPM_P2
2023/02/06 00:04:09;;;;;;;13.98;10.85;;;;;;;;;;10028800;28;20062;-62
2023/02/06 00:09:02;;;;;;;14.65;12.18;;;;;;;;;;10029249;28;20053;-63
2023/02/06 00:13:55;;;;;;;12.20;10.55;;;;;;;;;;10029181;28;20458;-63
2023/02/06 00:18:49;;;;;;;15.82;11.05;;;;;;;;;;10028522;28;20502;-62
2023/02/06 00:23:42;;;;;;;13.18;11.27;;;;;;;;;;10028524;28;20054;-63
2023/02/06 00:28:36;;;;;;;13.27;11.27;;;;;;;;;;10028756;28;20102;-63
2023/02/06 00:33:29;;;;;;;23.55;14.90;;;;;;;;;;10027107;28;20469;-63
2023/02/06 00:38:22;;;;;;;16.00;11.50;;;;;;;;;;10028138;28;20053;-63
2023/02/06 00:43:16;;;;;;;19.50;9.60;;;;;;;;;;10014080;28;20034;-63
2023/02/06 00:48:09;;;;;;;10.77;9.68;;;;;;;;;;10006944;28;20062;-62
2023/02/06 00:53:02;;;;;;;14.43;9.35;;;;;;;;;;10007991;28;20054;-63
2023/02/06 00:57:56;;;;;;;13.90;9.57;;;;;;;;;;10006799;28;20046;-63
2023/02/06 01:02:49;;;;;;;13.73;9.88;;;;;;;;;;10006558;28;20053;-63
2023/02/06 01:07:43;;;;;;;15.57;9.40;;;;;;;;;;10006267;28;20125;-62
2023/02/06 01:12:36;;;;;;;12.75;9.13;;;;;;;;;;10010106;28;20513;-63
2023/02/06 01:17:31;;;;;;;10.60;9.50;;;;;;;;;;10014290;28;20054;-63
2023/02/06 01:22:24;;;;;;;12.63;10.55;;;;;;;;;;10002954;28;20053;-63
2023/02/06 01:27:17;;;;;;;14.00;12.35;;;;;;;;;;10008922;28;20134;-63
2023/02/06 01:32:10;;;;;;;17.33;12.35;;;;;;;;;;10004663;28;20065;-62
2023/02/06 01:37:05;;;;;;;13.60;10.75;;;;;;;;;;10019969;28;20046;-62
2023/02/06 01:41:58;;;;;;;13.73;10.20;;;;;;;;;;10009387;28;20045;-62
2023/02/06 01:46:54;;;;;;;13.27;9.63;;;;;;;;;;10004633;28;20470;-62
2023/02/06 01:51:48;;;;;;;16.73;10.82;;;;;;;;;;10008977;28;20129;-62
2023/02/06 01:56:44;;;;;;;11.57;9.40;;;;;;;;;;10010396;28;20049;-62
2023/02/06 02:01:37;;;;;;;11.98;8.50;;;;;;;;;;9998736;28;20049;-62
2023/02/06 02:06:31;;;;;;;12.43;9.48;;;;;;;;;;10022284;28;20150;-62
2023/02/06 02:11:34;;;;;;;16.45;9.73;;;;;;;;;;10024178;28;20136;-62
2023/02/06 02:16:27;;;;;;;9.00;8.10;;;;;;;;;;10025124;28;20128;-62
2023/02/06 02:21:47;;;;;;;20.52;15.40;;;;;;;;;;10023992;28;20046;-62
2023/02/06 02:27:04;;;;;;;13.05;10.00;;;;;;;;;;10024498;28;20129;-62
2023/02/06 02:32:02;;;;;;;10.23;7.35;;;;;;;;;;10016803;28;20517;-62
2023/02/06 02:37:16;;;;;;;10.27;5.78;;;;;;;;;;10024341;28;20100;-62
2023/02/06 02:42:22;;;;;;;13.05;6.32;;;;;;;;;;10023657;28;20050;-62
2023/02/06 02:47:16;;;;;;;9.25;8.35;;;;;;;;;;10022867;28;20046;-62
2023/02/06 02:52:09;;;;;;;9.27;7.18;;;;;;;;;;10023272;28;20050;-62
2023/02/06 02:57:26;;;;;;;19.02;9.90;;;;;;;;;;10017648;28;20129;-63
2023/02/06 03:02:29;;;;;;;17.38;10.50;;;;;;;;;;10023483;28;20049;-63
2023/02/06 03:07:38;;;;;;;13.93;12.43;;;;;;;;;;10022893;28;20145;-63
2023/02/06 03:12:41;;;;;;;13.65;12.13;;;;;;;;;;10025012;28;20108;-62
2023/02/06 03:17:41;;;;;;;15.93;11.80;;;;;;;;;;10029806;28;20050;-63
2023/02/06 03:22:43;;;;;;;13.13;10.85;;;;;;;;;;10006014;28;20089;-63
2023/02/06 03:27:38;;;;;;;23.77;12.20;;;;;;;;;;10021581;28;20407;-62
2023/02/06 03:32:35;;;;;;;13.85;11.55;;;;;;;;;;10029634;28;20133;-63
2023/02/06 03:37:29;;;;;;;14.70;11.13;;;;;;;;;;10003816;28;20470;-62
2023/02/06 03:42:21;;;;;;;13.02;11.48;;;;;;;;;;10024554;28;20133;-63
2023/02/06 03:47:15;;;;;;;14.95;10.57;;;;;;;;;;10029477;28;20054;-63
2023/02/06 03:52:14;;;;;;;15.05;9.45;;;;;;;;;;10028565;28;20053;-63
2023/02/06 03:57:10;;;;;;;9.20;8.27;;;;;;;;;;10028688;28;20053;-63
2023/02/06 04:02:03;;;;;;;10.98;6.90;;;;;;;;;;10029208;28;20045;-63
2023/02/06 04:06:59;;;;;;;9.25;7.35;;;;;;;;;;10027568;28;20490;-63
2023/02/06 04:11:52;;;;;;;18.38;8.63;;;;;;;;;;10027922;28;20406;-63
2023/02/06 04:16:46;;;;;;;8.75;7.90;;;;;;;;;;10029251;28;20536;-62
2023/02/06 04:21:39;;;;;;;10.32;7.32;;;;;;;;;;10028877;28;20086;-63
2023/02/06 04:26:32;;;;;;;10.57;7.68;;;;;;;;;;10028281;28;20351;-63
2023/02/06 04:31:27;;;;;;;15.95;8.40;;;;;;;;;;10018710;28;20132;-64
2023/02/06 04:36:20;;;;;;;12.48;9.18;;;;;;;;;;10027034;28;20046;-62
2023/02/06 04:41:14;;;;;;;11.50;9.35;;;;;;;;;;10014470;28;20092;-63
2023/02/06 04:46:07;;;;;;;10.52;7.95;;;;;;;;;;10026110;28;20545;-62
2023/02/06 04:51:00;;;;;;;9.95;8.20;;;;;;;;;;10023216;28;20042;-62
2023/02/06 04:56:01;;;;;;;9.05;8.15;;;;;;;;;;10027708;28;20046;-62
2023/02/06 05:00:54;;;;;;;12.88;10.68;;;;;;;;;;10025962;28;20486;-62
2023/02/06 05:05:48;;;;;;;12.18;8.02;;;;;;;;;;10026870;28;20038;-62
2023/02/06 05:10:41;;;;;;;10.35;8.82;;;;;;;;;;10026866;28;20104;-62
2023/02/06 05:15:38;;;;;;;16.48;10.18;;;;;;;;;;10022750;28;20047;-62
2023/02/06 05:20:31;;;;;;;14.43;8.57;;;;;;;;;;10015124;28;20050;-62
2023/02/06 05:25:25;;;;;;;8.70;7.50;;;;;;;;;;10026161;28;20057;-63
2023/02/06 05:30:17;;;;;;;10.90;7.50;;;;;;;;;;10026081;28;20126;-63
2023/02/06 05:35:11;;;;;;;12.65;7.10;;;;;;;;;;10018159;28;20050;-62
2023/02/06 05:40:06;;;;;;;8.90;7.63;;;;;;;;;;10026099;28;20392;-62
2023/02/06 05:45:00;;;;;;;8.27;7.40;;;;;;;;;;10015434;28;20054;-66
2023/02/06 05:49:54;;;;;;;9.70;7.82;;;;;;;;;;10000923;28;20124;-63
2023/02/06 05:54:47;;;;;;;10.15;8.15;;;;;;;;;;10010344;28;20398;-63
2023/02/06 05:59:41;;;;;;;10.07;6.97;;;;;;;;;;10005012;28;20042;-63
2023/02/06 06:04:35;;;;;;;16.80;9.00;;;;;;;;;;10010614;28;20053;-62
2023/02/06 06:09:28;;;;;;;14.30;8.60;;;;;;;;;;10008517;28;20042;-62
2023/02/06 06:14:22;;;;;;;10.25;8.40;;;;;;;;;;10017906;28;20134;-64
2023/02/06 06:19:15;;;;;;;11.90;8.85;;;;;;;;;;10010551;28;20427;-64
2023/02/06 06:24:08;;;;;;;14.05;8.30;;;;;;;;;;10023132;28;20134;-64
2023/02/06 06:29:03;;;;;;;12.32;9.57;;;;;;;;;;10024937;28;20642;-64
2023/02/06 06:33:57;;;;;;;12.15;7.05;;;;;;;;;;10002156;28;20054;-64
2023/02/06 06:38:49;;;;;;;14.13;8.10;;;;;;;;;;10003407;28;20045;-64
2023/02/06 06:43:43;;;;;;;14.65;8.63;;;;;;;;;;10015884;28;20056;-66
2023/02/06 06:48:37;;;;;;;11.45;9.68;;;;;;;;;;10028770;28;20054;-65
2023/02/06 06:53:29;;;;;;;15.20;8.43;;;;;;;;;;10029373;28;20054;-65
2023/02/06 06:58:22;;;;;;;14.98;8.98;;;;;;;;;;10030971;28;20491;-65
2023/02/06 07:03:14;;;;;;;17.00;9.02;;;;;;;;;;10029962;28;20549;-64
2023/02/06 07:08:07;;;;;;;12.73;9.27;;;;;;;;;;10024306;28;20045;-64
2023/02/06 07:13:01;;;;;;;16.40;10.15;;;;;;;;;;10031625;28;20050;-64
2023/02/06 07:17:54;;;;;;;16.67;13.57;;;;;;;;;;10030526;28;20054;-64
2023/02/06 07:22:49;;;;;;;23.52;12.35;;;;;;;;;;10031062;28;20056;-64
2023/02/06 07:27:42;;;;;;;30.23;12.80;;;;;;;;;;10030331;28;20085;-64
2023/02/06 07:32:37;;;;;;;18.00;11.63;;;;;;;;;;10019367;28;20586;-65
2023/02/06 07:37:30;;;;;;;16.55;11.10;;;;;;;;;;10021332;28;20129;-65
2023/02/06 07:42:24;;;;;;;14.10;10.05;;;;;;;;;;10018042;28;20492;-65
2023/02/06 07:47:21;;;;;;;11.55;10.10;;;;;;;;;;10025270;28;20084;-63
2023/02/06 07:52:14;;;;;;;15.45;12.15;;;;;;;;;;10021600;28;20068;-63
2023/02/06 07:57:08;;;;;;;20.95;10.55;;;;;;;;;;10026759;28;20053;-65
2023/02/06 08:02:01;;;;;;;16.75;9.95;;;;;;;;;;10028146;28;20060;-64
2023/02/06 08:06:56;;;;;;;14.18;10.13;;;;;;;;;;10028730;28;20050;-64
2023/02/06 08:11:50;;;;;;;14.65;12.82;;;;;;;;;;10029078;28;20053;-64
2023/02/06 08:16:44;;;;;;;17.83;13.68;;;;;;;;;;10028966;28;20061;-63
2023/02/06 08:21:38;;;;;;;17.73;13.55;;;;;;;;;;10028070;28;20038;-63
2023/02/06 08:26:31;;;;;;;19.42;14.18;;;;;;;;;;10005076;28;20045;-64
2023/02/06 08:31:30;;;;;;;21.23;13.15;;;;;;;;;;10008290;28;20046;-63
2023/02/06 08:36:25;;;;;;;24.13;13.00;;;;;;;;;;10002869;28;20108;-64
2023/02/06 08:41:28;;;;;;;24.42;12.98;;;;;;;;;;10008229;28;20517;-64
2023/02/06 08:46:23;;;;;;;16.17;12.20;;;;;;;;;;10006322;28;20503;-64
2023/02/06 08:51:16;;;;;;;17.20;10.70;;;;;;;;;;10012500;28;20132;-63
2023/02/06 08:56:11;;;;;;;16.20;11.38;;;;;;;;;;10011873;28;20399;-65
2023/02/06 09:01:09;;;;;;;22.45;11.70;;;;;;;;;;10019148;28;20049;-65
2023/02/06 09:06:03;;;;;;;16.65;11.00;;;;;;;;;;10015646;28;20077;-65
2023/02/06 09:11:11;;;;;;;12.95;9.50;;;;;;;;;;10017180;28;20108;-65
2023/02/06 09:16:06;;;;;;;13.85;9.18;;;;;;;;;;10006594;28;20046;-65
2023/02/06 09:21:18;;;;;;;17.80;9.20;;;;;;;;;;10012599;28;20555;-65
2023/02/06 09:26:20;;;;;;;11.15;8.98;;;;;;;;;;10017704;28;20049;-65
2023/02/06 09:31:13;;;;;;;11.85;6.60;;;;;;;;;;10022350;28;20104;-63
2023/02/06 09:36:13;;;;;;;12.95;6.60;;;;;;;;;;10020391;28;20077;-62
2023/02/06 09:41:31;;;;;;;10.98;7.25;;;;;;;;;;10022270;28;20049;-62
2023/02/06 09:46:30;;;;;;;8.50;6.67;;;;;;;;;;10007205;28;20061;-62
2023/02/06 09:51:28;;;;;;;7.40;6.70;;;;;;;;;;10019679;28;20085;-62
2023/02/06 09:56:45;;;;;;;11.80;7.38;;;;;;;;;;10022396;28;20084;-63
2023/02/06 10:01:45;;;;;;;7.10;4.85;;;;;;;;;;10023971;28;20041;-63
2023/02/06 10:07:13;;;;;;;6.15;3.50;;;;;;;;;;10030350;28;20065;-63
2023/02/06 10:12:19;;;;;;;2.88;2.55;;;;;;;;;;10018269;28;20054;-63
2023/02/06 10:17:20;;;;;;;4.00;3.15;;;;;;;;;;10024165;28;20403;-63
2023/02/06 10:22:19;;;;;;;5.22;2.75;;;;;;;;;;10028410;28;20046;-63
2023/02/06 10:27:14;;;;;;;5.45;3.08;;;;;;;;;;10031792;28;20049;-63
2023/02/06 10:32:25;;;;;;;6.10;3.63;;;;;;;;;;10031718;28;20073;-63
2023/02/06 10:37:23;;;;;;;4.22;3.00;;;;;;;;;;10032526;28;20046;-62
2023/02/06 10:42:34;;;;;;;8.45;4.05;;;;;;;;;;10031547;28;20111;-63
2023/02/06 10:47:38;;;;;;;6.32;3.83;;;;;;;;;;10031922;28;20046;-61
2023/02/06 10:52:36;;;;;;;5.10;3.13;;;;;;;;;;10020157;28;20062;-62
2023/02/06 10:57:30;;;;;;;5.30;3.55;;;;;;;;;;10032118;28;20411;-63
2023/02/06 11:03:05;;;;;;;9.07;3.35;;;;;;;;;;10031696;28;20053;-63
2023/02/06 11:08:20;;;;;;;5.07;2.95;;;;;;;;;;9985035;28;20153;-63
2023/02/06 11:13:20;;;;;;;4.72;2.95;;;;;;;;;;10017283;28;20060;-63
2023/02/06 11:18:18;;;;;;;5.95;3.63;;;;;;;;;;10030453;28;20050;-63
2023/02/06 11:23:24;;;;;;;6.95;3.78;;;;;;;;;;10013719;28;20084;-63
2023/02/06 11:28:21;;;;;;;5.38;2.90;;;;;;;;;;10030009;28;20069;-63
2023/02/06 11:33:21;;;;;;;4.57;2.85;;;;;;;;;;10029120;28;20073;-63
2023/02/06 11:38:17;;;;;;;8.48;3.50;;;;;;;;;;10028877;28;20065;-64
2023/02/06 11:43:22;;;;;;;8.13;4.85;;;;;;;;;;10024074;28;20064;-62
2023/02/06 11:48:34;;;;;;;7.57;3.70;;;;;;;;;;10029849;28;20050;-64
2023/02/06 11:53:27;;;;;;;3.72;2.92;;;;;;;;;;10029949;28;20096;-63
2023/02/06 11:58:24;;;;;;;6.93;4.00;;;;;;;;;;10030119;28;20046;-63
2023/02/06 12:03:45;;;;;;;5.47;3.55;;;;;;;;;;10028132;28;20046;-63
2023/02/06 12:08:40;;;;;;;4.75;3.35;;;;;;;;;;10027463;28;20049;-64
2023/02/06 12:13:38;;;;;;;4.30;3.88;;;;;;;;;;10025200;28;20049;-64
2023/02/06 12:18:36;;;;;;;5.35;2.97;;;;;;;;;;10027392;28;20081;-64
2023/02/06 12:23:47;;;;;;;6.85;3.63;;;;;;;;;;10020411;28;20085;-64
2023/02/06 12:29:01;;;;;;;4.93;3.65;;;;;;;;;;10014001;28;20050;-63
2023/02/06 12:34:03;;;;;;;7.70;4.63;;;;;;;;;;10017852;28;20141;-64
2023/02/06 12:39:18;;;;;;;5.28;3.97;;;;;;;;;;10026876;28;20065;-63
2023/02/06 12:44:44;;;;;;;5.97;4.03;;;;;;;;;;10025635;28;20052;-62
2023/02/06 12:50:03;;;;;;;4.95;3.75;;;;;;;;;;10013087;28;20053;-63
2023/02/06 12:55:23;;;;;;;4.53;3.53;;;;;;;;;;10010832;28;20042;-62
2023/02/06 13:00:19;;;;;;;5.28;3.78;;;;;;;;;;10016107;28;20041;-63
2023/02/06 13:05:37;;;;;;;6.32;3.70;;;;;;;;;;10015345;28;20050;-63
2023/02/06 13:10:31;;;;;;;5.30;4.22;;;;;;;;;;10018746;28;20466;-63
2023/02/06 13:15:27;;;;;;;5.40;4.18;;;;;;;;;;10026811;28;20585;-63
2023/02/06 13:20:23;;;;;;;3.75;3.13;;;;;;;;;;10015816;28;20049;-63
2023/02/06 13:25:26;;;;;;;8.65;4.05;;;;;;;;;;10026358;28;20054;-66
2023/02/06 13:30:28;;;;;;;3.92;3.53;;;;;;;;;;10022853;28;20060;-62
2023/02/06 13:35:28;;;;;;;4.22;3.20;;;;;;;;;;10019738;28;20050;-61
2023/02/06 13:40:29;;;;;;;8.50;4.32;;;;;;;;;;10014691;28;20490;-60
2023/02/06 13:45:48;;;;;;;6.00;4.15;;;;;;;;;;10010819;28;20061;-62
2023/02/06 13:50:56;;;;;;;12.05;6.45;;;;;;;;;;10017806;28;20057;-60
2023/02/06 13:56:13;;;;;;;10.18;5.85;;;;;;;;;;10014727;28;20050;-61
2023/02/06 14:01:13;;;;;;;11.15;5.40;;;;;;;;;;10016669;28;20118;-61
2023/02/06 14:06:32;;;;;;;5.25;4.05;;;;;;;;;;10017429;28;20129;-62
2023/02/06 14:17:07;;;;;;;8.35;5.30;;;;;;;;;;10016111;28;20525;-63
2023/02/06 14:22:17;;;;;;;5.82;4.32;;;;;;;;;;10007138;28;20052;-62
2023/02/06 14:27:15;;;;;;;10.93;6.20;;;;;;;;;;10016794;28;20053;-62
2023/02/06 14:32:47;;;;;;;;;;;;;;;;;;10006883;28;20427;-59
2023/02/06 14:38:04;;;;;;;6.75;5.20;;;;;;;;;;9929105;28;20036;-62
2023/02/06 14:43:02;;;;;;;9.32;4.30;;;;;;;;;;9997676;28;20411;-64
2023/02/06 14:47:59;;;;;;;7.10;4.38;;;;;;;;;;10001615;28;20574;-62
2023/02/06 14:53:06;;;;;;;4.88;4.30;;;;;;;;;;10012996;28;20041;-61
2023/02/06 14:58:28;;;;;;;11.25;4.95;;;;;;;;;;10008178;28;20116;-63
2023/02/06 15:03:42;;;;;;;11.00;5.55;;;;;;;;;;10004416;28;20401;-62
2023/02/06 15:08:35;;;;;;;11.98;5.68;;;;;;;;;;10007146;28;20478;-63
2023/02/06 15:13:39;;;;;;;6.68;4.82;;;;;;;;;;10011791;28;20070;-63
2023/02/06 15:18:43;;;;;;;4.28;3.88;;;;;;;;;;10018792;28;20477;-62
2023/02/06 15:23:51;;;;;;;5.78;4.68;;;;;;;;;;10029094;28;20459;-63
2023/02/06 15:28:46;;;;;;;6.90;4.65;;;;;;;;;;10030560;28;20058;-63
2023/02/06 15:33:40;;;;;;;8.15;5.85;;;;;;;;;;10030810;28;20046;-63
2023/02/06 15:38:33;;;;;;;7.85;5.15;;;;;;;;;;10029453;28;20100;-63
2023/02/06 15:43:26;;;;;;;7.05;4.88;;;;;;;;;;10030042;28;20038;-63
2023/02/06 15:48:27;;;;;;;6.95;4.95;;;;;;;;;;10027924;28;20477;-62
2023/02/06 15:53:26;;;;;;;7.60;4.15;;;;;;;;;;10027949;28;20129;-64
2023/02/06 15:58:20;;;;;;;10.50;6.25;;;;;;;;;;10012613;28;20052;-63
2023/02/06 16:03:17;;;;;;;14.52;6.75;;;;;;;;;;10027991;28;20072;-63
2023/02/06 16:08:23;;;;;;;12.73;7.57;;;;;;;;;;10027871;28;20533;-63
2023/02/06 16:13:25;;;;;;;6.55;4.93;;;;;;;;;;10024794;28;20046;-64
2023/02/06 16:18:24;;;;;;;7.95;6.15;;;;;;;;;;10020005;28;20058;-63
2023/02/06 16:23:27;;;;;;;10.95;6.55;;;;;;;;;;10022350;28;20499;-64
2023/02/06 16:28:25;;;;;;;14.35;10.20;;;;;;;;;;10026959;28;20053;-65
2023/02/06 16:33:45;;;;;;;12.40;6.72;;;;;;;;;;10027710;28;20050;-64
2023/02/06 16:38:38;;;;;;;;;;;;;;;;;;10022545;28;20502;-62
2023/02/06 16:43:40;;;;;;;10.25;5.15;;;;;;;;;;10027712;28;19925;-64
2023/02/06 16:48:39;;;;;;;6.85;6.15;;;;;;;;;;10018889;28;20100;-64
2023/02/06 16:53:33;;;;;;;;;;;;;;;;;;10010694;28;20053;-61
2023/02/06 16:58:29;;;;;;;12.98;6.57;;;;;;;;;;10018231;28;20016;-61
2023/02/06 17:03:22;;;;;;;6.72;5.57;;;;;;;;;;10027166;28;20454;-62
2023/02/06 17:08:20;;;;;;;9.77;5.65;;;;;;;;;;10026164;28;20410;-63
2023/02/06 17:13:18;;;;;;;6.18;5.53;;;;;;;;;;10026148;28;20052;-63
2023/02/06 17:18:16;;;;;;;5.80;5.20;;;;;;;;;;10024963;28;20414;-65
2023/02/06 17:23:09;;;;;;;7.32;4.97;;;;;;;;;;10022719;28;20054;-64
2023/02/06 17:28:06;;;;;;;10.18;7.30;;;;;;;;;;10024180;28;20049;-63
2023/02/06 17:32:59;;;;;;;10.23;7.25;;;;;;;;;;10024952;28;20042;-63
2023/02/06 17:37:52;;;;;;;12.15;8.15;;;;;;;;;;10025320;28;20050;-64
2023/02/06 17:42:45;;;;;;;8.00;6.25;;;;;;;;;;10020237;28;20054;-61
2023/02/06 17:47:39;;;;;;;6.50;5.18;;;;;;;;;;10021675;28;20081;-63
2023/02/06 17:52:32;;;;;;;10.13;8.18;;;;;;;;;;10020254;28;20136;-63
2023/02/06 17:57:28;;;;;;;12.32;8.82;;;;;;;;;;10025615;28;20161;-63
2023/02/06 18:02:21;;;;;;;16.42;10.10;;;;;;;;;;10025412;28;20070;-63
2023/02/06 18:07:15;;;;;;;18.40;12.65;;;;;;;;;;10024915;28;20053;-63
2023/02/06 18:12:08;;;;;;;10.60;8.98;;;;;;;;;;10029318;28;20081;-64
2023/02/06 18:17:02;;;;;;;15.27;12.18;;;;;;;;;;10018751;28;20049;-64
2023/02/06 18:21:56;;;;;;;9.02;8.13;;;;;;;;;;10023870;28;20483;-64
2023/02/06 18:26:50;;;;;;;14.93;7.78;;;;;;;;;;10023512;28;20046;-64
2023/02/06 18:31:43;;;;;;;9.05;7.75;;;;;;;;;;10023597;28;20433;-64
2023/02/06 18:36:37;;;;;;;13.13;8.45;;;;;;;;;;10024781;28;20048;-64
2023/02/06 18:46:42;;;;;;;15.43;9.70;;;;;;;;;;10032488;28;20478;-66
2023/02/06 18:51:35;;;;;;;14.85;9.40;;;;;;;;;;10031103;28;20442;-65
2023/02/06 18:56:29;;;;;;;15.82;11.32;;;;;;;;;;10029934;28;20057;-65
2023/02/06 19:01:23;;;;;;;13.27;9.35;;;;;;;;;;10031531;28;20073;-65
2023/02/06 19:06:34;;;;;;;24.50;9.93;;;;;;;;;;10029045;28;20056;-66
2023/02/06 19:11:27;;;;;;;12.25;9.77;;;;;;;;;;10030007;28;20082;-66
2023/02/06 19:16:20;;;;;;;13.90;11.05;;;;;;;;;;10030582;28;20560;-66
2023/02/06 19:21:18;;;;;;;16.75;13.25;;;;;;;;;;10029643;28;20045;-66
2023/02/06 19:26:13;;;;;;;15.45;12.77;;;;;;;;;;10028978;28;20053;-66
2023/02/06 19:31:07;;;;;;;19.92;13.25;;;;;;;;;;10022857;28;20060;-65
2023/02/06 19:36:06;;;;;;;28.27;16.77;;;;;;;;;;10024950;28;20461;-66
2023/02/06 19:41:26;;;;;;;23.63;18.67;;;;;;;;;;10028145;28;20054;-67
2023/02/06 19:46:22;;;;;;;28.63;21.48;;;;;;;;;;10021386;28;20058;-64
2023/02/06 19:51:19;;;;;;;29.23;18.10;;;;;;;;;;10030102;28;20069;-65
2023/02/06 19:56:33;;;;;;;25.25;17.98;;;;;;;;;;10025179;28;20076;-64
2023/02/06 20:01:28;;;;;;;20.33;15.18;;;;;;;;;;9997681;28;20057;-68
2023/02/06 20:06:22;;;;;;;18.23;12.18;;;;;;;;;;9994555;28;20137;-65
2023/02/06 20:11:18;;;;;;;17.75;12.35;;;;;;;;;;9999277;28;20054;-65
2023/02/06 20:16:20;;;;;;;16.10;13.98;;;;;;;;;;9998954;28;20455;-64
2023/02/06 20:21:21;;;;;;;21.20;15.40;;;;;;;;;;9991176;28;20050;-65
2023/02/06 20:26:16;;;;;;;21.70;16.75;;;;;;;;;;9995729;28;20056;-65
2023/02/06 20:31:10;;;;;;;19.67;15.70;;;;;;;;;;9995356;28;20042;-65
2023/02/06 20:36:09;;;;;;;33.13;22.55;;;;;;;;;;9997375;28;20053;-64
2023/02/06 20:41:02;;;;;;;;;;;;;;;;;;9999789;28;20524;-61
2023/02/06 20:45:56;;;;;;;31.10;21.98;;;;;;;;;;9988766;28;19929;-64
2023/02/06 20:50:55;;;;;;;24.73;19.65;;;;;;;;;;10015161;28;20050;-63
2023/02/06 20:55:49;;;;;;;23.60;16.13;;;;;;;;;;10015135;28;20043;-64
2023/02/06 21:00:42;;;;;;;20.52;14.48;;;;;;;;;;10013260;28;20049;-63
2023/02/06 21:05:35;;;;;;;21.63;14.90;;;;;;;;;;10012896;28;20053;-63
2023/02/06 21:10:29;;;;;;;17.05;14.73;;;;;;;;;;10012407;28;20088;-63
2023/02/06 21:15:22;;;;;;;18.95;14.52;;;;;;;;;;10010903;28;20038;-63
2023/02/06 21:20:16;;;;;;;23.80;15.13;;;;;;;;;;10013047;28;20053;-62
2023/02/06 21:25:09;;;;;;;22.65;16.10;;;;;;;;;;10013049;28;20120;-62
2023/02/06 21:30:05;;;;;;;22.52;16.52;;;;;;;;;;10010116;28;20491;-62
2023/02/06 21:34:57;;;;;;;22.13;17.05;;;;;;;;;;10013499;28;20511;-63
2023/02/06 21:39:50;;;;;;;19.63;14.65;;;;;;;;;;10020454;28;20064;-63
2023/02/06 21:44:43;;;;;;;23.00;16.15;;;;;;;;;;10011458;28;21309;-62
2023/02/06 21:49:37;;;;;;;18.35;15.02;;;;;;;;;;10012548;28;20391;-62
2023/02/06 21:54:30;;;;;;;19.20;13.82;;;;;;;;;;10015024;28;20052;-62
2023/02/06 21:59:23;;;;;;;19.90;16.55;;;;;;;;;;10010084;28;20439;-62
2023/02/06 22:04:17;;;;;;;19.48;14.13;;;;;;;;;;10000244;28;20046;-61
2023/02/06 22:09:14;;;;;;;19.55;15.82;;;;;;;;;;10004229;28;20046;-61
2023/02/06 22:14:10;;;;;;;22.27;14.27;;;;;;;;;;10001938;28;20061;-61
2023/02/06 22:19:05;;;;;;;24.80;18.67;;;;;;;;;;10012578;28;20509;-62
2023/02/06 22:24:00;;;;;;;21.45;17.40;;;;;;;;;;10034416;28;20455;-62
2023/02/06 22:28:56;;;;;;;23.35;16.85;;;;;;;;;;10033757;28;20169;-62
2023/02/06 22:33:50;;;;;;;22.63;17.45;;;;;;;;;;10027934;28;20588;-61
2023/02/06 22:38:45;;;;;;;28.20;16.52;;;;;;;;;;10032014;28;20072;-62
2023/02/06 22:43:38;;;;;;;21.42;18.48;;;;;;;;;;10032682;28;20045;-63
2023/02/06 22:48:32;;;;;;;17.05;15.25;;;;;;;;;;10031876;28;20049;-63
2023/02/06 22:53:29;;;;;;;22.58;15.30;;;;;;;;;;10032619;28;20058;-63
2023/02/06 22:58:23;;;;;;;16.98;13.50;;;;;;;;;;10022013;28;20073;-63
2023/02/06 23:03:16;;;;;;;25.33;16.20;;;;;;;;;;10026938;28;20403;-63
2023/02/06 23:08:10;;;;;;;22.02;17.02;;;;;;;;;;10031616;28;20549;-63
2023/02/06 23:13:03;;;;;;;17.77;15.30;;;;;;;;;;10031651;28;20042;-63
2023/02/06 23:17:56;;;;;;;19.08;14.65;;;;;;;;;;10031747;28;20129;-63
2023/02/06 23:22:50;;;;;;;19.73;15.40;;;;;;;;;;10031321;28;20085;-63
2023/02/06 23:27:42;;;;;;;24.58;16.35;;;;;;;;;;10030906;28;20092;-63
2023/02/06 23:32:36;;;;;;;25.73;16.33;;;;;;;;;;10031470;28;20525;-63
2023/02/06 23:37:29;;;;;;;20.67;17.67;;;;;;;;;;10030373;28;20052;-63
2023/02/06 23:42:23;;;;;;;20.73;15.98;;;;;;;;;;10030685;28;20133;-63
2023/02/06 23:47:17;;;;;;;22.67;16.45;;;;;;;;;;10031029;28;20062;-62
2023/02/06 23:52:10;;;;;;;18.58;15.88;;;;;;;;;;10030092;28;20050;-63
2023/02/06 23:57:04;;;;;;;21.52;15.50;;;;;;;;;;10026029;28;20494;-63
